TimeCST,TemperatureF,Dew PointF,Humidity,Sea Level PressureIn,VisibilityMPH,Wind Direction,Wind SpeedMPH,Gust SpeedMPH,PrecipitationIn,Events,Conditions,WindDirDegrees,DateUTC
12:15 AM,35.6,35.6,100,29.91,10.0,East,12.7,20.7,N/A,,Overcast,100,2013-02-21 06:15:00
12:35 AM,35.6,35.6,100,29.88,7.0,East,13.8,23.0,N/A,,Overcast,90,2013-02-21 06:35:00
12:55 AM,35.6,35.6,100,29.87,10.0,East,15.0,23.0,0.01,,Overcast,100,2013-02-21 06:55:00
1:15 AM,35.6,35.6,100,29.84,10.0,East,13.8,24.2,N/A,,Overcast,100,2013-02-21 07:15:00
1:35 AM,35.6,35.6,100,29.84,10.0,East,13.8,20.7,N/A,,Overcast,100,2013-02-21 07:35:00
1:55 AM,35.6,35.6,100,29.81,7.0,ESE,17.3,23.0,N/A,,Overcast,110,2013-02-21 07:55:00
2:15 AM,35.6,35.6,100,29.79,10.0,ESE,13.8,24.2,N/A,,Overcast,110,2013-02-21 08:15:00
2:35 AM,35.6,35.6,100,29.85,10.0,NE,3.5,21.9,N/A,Thunderstorm,Thunderstorm,40,2013-02-21 08:35:00
2:55 AM,35.6,35.6,100,29.77,3.0,East,11.5,19.6,N/A,Thunderstorm,Thunderstorm,90,2013-02-21 08:55:00
3:15 AM,35.6,35.6,100,29.77,10.0,ESE,12.7,23.0,N/A,,Overcast,120,2013-02-21 09:15:00
3:35 AM,35.6,35.6,100,29.74,10.0,ESE,13.8,18.4,N/A,Thunderstorm,Overcast,120,2013-02-21 09:35:00
3:55 AM,35.6,35.6,100,29.72,10.0,ESE,15.0,21.9,N/A,,Overcast,120,2013-02-21 09:55:00
4:15 AM,35.6,35.6,100,29.70,10.0,ESE,16.1,21.9,N/A,,Overcast,120,2013-02-21 10:15:00
4:35 AM,35.6,35.6,100,29.69,10.0,East,10.4,-,N/A,,Overcast,100,2013-02-21 10:35:00
4:55 AM,35.6,35.6,100,29.68,7.0,ESE,13.8,-,N/A,Thunderstorm,Overcast,110,2013-02-21 10:55:00
5:15 AM,35.6,35.6,100,29.72,7.0,NNE,3.5,9.2,N/A,Thunderstorm,Overcast,20,2013-02-21 11:15:00
5:35 AM,35.6,35.6,100,29.74,4.0,NNW,9.2,-,N/A,Thunderstorm,Overcast,340,2013-02-21 11:35:00
5:55 AM,35.6,35.6,100,29.79,2.0,NW,5.8,-,N/A,,Overcast,320,2013-02-21 11:55:00
6:15 AM,35.6,35.6,100,29.79,1.8,NNW,11.5,-,N/A,Thunderstorm,Overcast,340,2013-02-21 12:15:00
6:35 AM,35.6,35.6,100,29.80,2.5,NNW,6.9,-,N/A,,Overcast,340,2013-02-21 12:35:00
6:55 AM,35.6,35.6,100,29.79,2.0,NNE,5.8,-,N/A,Thunderstorm,Thunderstorm,30,2013-02-21 12:55:00
7:15 AM,35.6,35.6,100,29.73,2.5,NE,11.5,-,N/A,Thunderstorm,Overcast,50,2013-02-21 13:15:00
7:35 AM,35.6,35.6,100,29.76,2.0,NNE,6.9,-,N/A,Snow-Thunderstorm,Light Thunderstorms and Snow,20,2013-02-21 13:35:00
7:55 AM,35.6,35.6,100,29.78,3.0,NE,6.9,-,N/A,,Overcast,40,2013-02-21 13:55:00
8:15 AM,35.6,35.6,100,29.79,3.0,NE,3.5,-,N/A,,Overcast,50,2013-02-21 14:15:00
8:35 AM,35.6,35.6,100,29.77,4.0,East,8.1,-,N/A,,Overcast,80,2013-02-21 14:35:00
8:55 AM,35.6,35.6,100,29.77,5.0,East,9.2,-,N/A,,Overcast,90,2013-02-21 14:55:00
9:15 AM,35.6,35.6,100,29.76,10.0,East,10.4,-,N/A,Thunderstorm,Overcast,80,2013-02-21 15:15:00
9:35 AM,35.6,35.6,100,29.75,10.0,East,8.1,-,N/A,,Overcast,90,2013-02-21 15:35:00
9:55 AM,35.6,35.6,100,29.73,10.0,East,8.1,-,N/A,,Overcast,90,2013-02-21 15:55:00
10:15 AM,35.6,35.6,100,29.72,10.0,ESE,9.2,-,N/A,,Overcast,110,2013-02-21 16:15:00
10:35 AM,35.6,35.6,100,29.71,10.0,East,13.8,17.3,N/A,,Overcast,100,2013-02-21 16:35:00
10:55 AM,35.6,35.6,100,29.72,10.0,ESE,10.4,-,N/A,,Overcast,120,2013-02-21 16:55:00
11:15 AM,35.6,35.6,100,29.71,10.0,ESE,9.2,-,N/A,,Overcast,120,2013-02-21 17:15:00
11:35 AM,37.4,37.4,100,29.71,10.0,SSE,10.4,-,N/A,,Overcast,150,2013-02-21 17:35:00
11:55 AM,37.4,37.4,100,29.70,10.0,SE,11.5,-,N/A,,Overcast,140,2013-02-21 17:55:00
12:15 PM,37.4,37.4,100,29.70,10.0,ESE,10.4,-,N/A,,Overcast,120,2013-02-21 18:15:00
12:35 PM,37.4,37.4,100,29.69,10.0,SE,9.2,-,N/A,,Overcast,140,2013-02-21 18:35:00
12:55 PM,37.4,37.4,100,29.69,10.0,SE,8.1,-,N/A,,Overcast,130,2013-02-21 18:55:00
1:15 PM,37.4,37.4,100,29.68,10.0,SE,8.1,-,N/A,,Overcast,130,2013-02-21 19:15:00
1:35 PM,39.2,39.2,100,29.69,10.0,South,4.6,-,N/A,,Overcast,170,2013-02-21 19:35:00
1:55 PM,39.2,39.2,100,29.69,10.0,South,3.5,-,N/A,,Overcast,180,2013-02-21 19:55:00
2:15 PM,41.0,41.0,100,29.68,10.0,SE,3.5,-,N/A,,Overcast,140,2013-02-21 20:15:00
2:35 PM,41.0,41.0,100,29.69,10.0,Calm,Calm,-,N/A,,Overcast,0,2013-02-21 20:35:00
2:55 PM,41.0,41.0,100,29.68,10.0,Calm,Calm,-,N/A,,Overcast,0,2013-02-21 20:55:00
3:15 PM,42.8,41.0,93,29.69,10.0,Calm,Calm,-,N/A,,Overcast,0,2013-02-21 21:15:00
3:35 PM,42.8,42.8,100,29.70,10.0,West,3.5,-,N/A,,Overcast,270,2013-02-21 21:35:00
3:55 PM,44.6,42.8,93,29.71,10.0,WNW,6.9,-,N/A,,Overcast,300,2013-02-21 21:55:00
4:35 PM,42.8,41.0,93,29.75,10.0,WNW,10.4,-,N/A,,Overcast,300,2013-02-21 22:35:00
4:55 PM,41.0,41.0,100,29.76,10.0,WNW,9.2,-,N/A,,Overcast,300,2013-02-21 22:55:00
5:15 PM,41.0,41.0,100,29.77,5.0,WNW,8.1,-,N/A,,Overcast,290,2013-02-21 23:15:00
5:35 PM,41.0,41.0,100,29.78,7.0,WNW,9.2,-,N/A,,Overcast,290,2013-02-21 23:35:00
5:55 PM,41.0,41.0,100,29.79,10.0,West,9.2,-,N/A,,Overcast,270,2013-02-21 23:55:00
6:15 PM,41.0,39.2,93,29.79,10.0,WNW,11.5,-,N/A,,Mostly Cloudy,300,2013-02-22 00:15:00
6:35 PM,41.0,39.2,93,29.82,10.0,West,13.8,17.3,N/A,,Overcast,280,2013-02-22 00:35:00
6:55 PM,39.2,37.4,93,29.82,10.0,NW,16.1,-,N/A,,Overcast,310,2013-02-22 00:55:00
7:15 PM,37.4,35.6,93,29.84,10.0,WNW,15.0,20.7,N/A,,Overcast,300,2013-02-22 01:15:00
7:35 PM,37.4,35.6,93,29.84,10.0,NW,12.7,-,N/A,,Overcast,310,2013-02-22 01:35:00
7:55 PM,35.6,33.8,93,29.86,10.0,NW,19.6,26.5,N/A,,Overcast,310,2013-02-22 01:55:00
8:15 PM,35.6,33.8,93,29.88,10.0,WNW,12.7,19.6,N/A,,Overcast,300,2013-02-22 02:15:00
8:35 PM,35.6,33.8,93,29.90,10.0,NW,17.3,25.3,N/A,,Overcast,310,2013-02-22 02:35:00
8:55 PM,33.8,32.0,93,29.92,10.0,NW,9.2,21.9,N/A,,Overcast,310,2013-02-22 02:55:00
9:15 PM,33.8,32.0,93,29.92,10.0,NW,11.5,-,N/A,,Overcast,310,2013-02-22 03:15:00
9:35 PM,33.8,32.0,93,29.94,10.0,WNW,15.0,20.7,N/A,,Overcast,290,2013-02-22 03:35:00
9:55 PM,33.8,30.2,87,29.95,10.0,WNW,13.8,-,N/A,,Overcast,300,2013-02-22 03:55:00
10:15 PM,32.0,30.2,93,29.96,10.0,NW,12.7,-,N/A,,Scattered Clouds,310,2013-02-22 04:15:00
10:35 PM,32.0,30.2,93,29.98,10.0,NW,13.8,19.6,N/A,,Mostly Cloudy,310,2013-02-22 04:35:00
10:55 PM,32.0,28.4,87,30.00,10.0,NW,11.5,-,N/A,,Mostly Cloudy,310,2013-02-22 04:55:00
11:15 PM,32.0,28.4,87,30.00,10.0,WNW,11.5,16.1,N/A,,Overcast,300,2013-02-22 05:15:00
11:35 PM,30.2,26.6,86,30.00,10.0,WNW,13.8,21.9,N/A,,Scattered Clouds,300,2013-02-22 05:35:00
11:55 PM,30.2,26.6,86,30.00,10.0,WNW,13.8,-,N/A,,Clear,300,2013-02-22 05:55:00